This is the latest recevied weather packets stored in our database for station/object OK1PMP-6. If no packets are shown the sender has not sent any weather packets the latest 1 day(s).
| Time | Temp. | Humidity | Pressure | Rain* | Wind** | Luminosity | Snow |
|---|---|---|---|---|---|---|---|
| 1778045632 | 12.78° C | 93% | 1010.1 hPa | 0 mm | - | 212 W/m² | - |
| 1778043849 | 11.11° C | 98% | 1010.1 hPa | 0 mm | - | 121 W/m² | - |
| 1778042932 | 10.56° C | 96% | 1010 hPa | 0 mm | - | 76 W/m² | - |
| 1778041128 | 10.56° C | 96% | 1009.6 hPa | 0 mm | - | 31 W/m² | - |
| 1778040228 | 10.56° C | 95% | 1009.5 hPa | 0 mm | - | 18 W/m² | - |
| 1778039325 | 11.11° C | 96% | 1009.2 hPa | 0 mm | - | 9 W/m² | - |
| 1778038424 | 11.11° C | 96% | 1009.3 hPa | 0 mm | - | 0 W/m² | - |
| 1778037522 | 10.56° C | 94% | 1009.2 hPa | 0 mm | - | 0 W/m² | - |
| 1778035690 | 10.56° C | 93% | 1009.4 hPa | 0 mm | - | 0 W/m² | - |
| 1778034789 | 11.11° C | 93% | 1009.5 hPa | 0 mm | - | 0 W/m² | - |
| 1778033884 | 11.67° C | 94% | 1009.4 hPa | 0 mm | - | 0 W/m² | - |
| 1778032082 | 11.67° C | 94% | 1009.8 hPa | 0 mm | - | 0 W/m² | - |
| 1778030279 | 11.67° C | 93% | 1009.4 hPa | 0 mm | - | 0 W/m² | - |
| 1778029379 | 11.67° C | 93% | 1009.2 hPa | 0 mm | - | 0 W/m² | - |
| 1778028476 | 11.67° C | 92% | 1009.1 hPa | 0.25 mm | - | 0 W/m² | - |
| 1778027592 | 11.67° C | 93% | 1008.9 hPa | 0.25 mm | - | 0 W/m² | - |
| 1778026674 | 12.22° C | 93% | 1009 hPa | 0.25 mm | - | 0 W/m² | - |
| 1778024874 | 12.22° C | 90% | 1009.4 hPa | 0 mm | - | 0 W/m² | - |
| 1778023981 | 12.78° C | 88% | 1009.3 hPa | 0 mm | - | 0 W/m² | - |
| 1778022174 | 13.33° C | 86% | 1009.6 hPa | 0 mm | - | 0 W/m² | - |
| 1778020483 | 13.89° C | 84% | 1009.5 hPa | 0 mm | - | 0 W/m² | - |
| 1778019465 | 15° C | 82% | 1009.2 hPa | 0 mm | - | 0 W/m² | - |
| 1778018580 | 15° C | 82% | 1008.9 hPa | 0 mm | - | 0 W/m² | - |
| 1778015856 | 14.44° C | 86% | 1008 hPa | 0 mm | - | 0 W/m² | - |
| 1778014955 | 14.44° C | 85% | 1007.4 hPa | 0 mm | - | 0 W/m² | - |
* Rain latest hour (hover to see other rain measurements)
** Current wind speed in m/s (hover to see current wind gust speed)